DLH51A EDDF-LOWS
Flight info
| Callsign | DLH51A |
|---|---|
| Flight time | N/A |
| Altitude | 29000 |
| Route | CINDY8S/18 CINDY Z74 HAREM DCT ASLEP DCT TAKUT DCT DINKU L603 OLETU T702 BADIT BADIT2R |
| Aircraft | A320/M-SDE2E3FGIJ1LORWXYZ/HB1 |
Departure
| Time | 2026-05-05 15:59 |
|---|---|
| Airport | Frankfurt Main Airport (EDDF) |
Arrival
| Time | N/A |
|---|---|
| Airport | Salzburg Airport (LOWS) |
| Time | Latitude | Longitude | Altitude | Speed | Heading |
|---|---|---|---|---|---|
| 2026-05-05 15:28 | 50.04412 | 8.56218 | 363 ft | 0 kts | 160° |
| 2026-05-05 15:45 | 50.04433 | 8.56208 | 360 ft | 4 kts | 169° |
| 2026-05-05 15:45 | 50.04460 | 8.56205 | 365 ft | 4 kts | 195° |
| 2026-05-05 15:46 | 50.04478 | 8.56222 | 361 ft | 2 kts | 249° |
| 2026-05-05 15:46 | 50.04480 | 8.56230 | 360 ft | 0 kts | 249° |
| 2026-05-05 15:50 | 50.04479 | 8.56229 | 360 ft | 1 kts | 249° |
| 2026-05-05 15:50 | 50.04475 | 8.56209 | 361 ft | 3 kts | 250° |
| 2026-05-05 15:50 | 50.04464 | 8.56169 | 362 ft | 3 kts | 243° |
| 2026-05-05 15:50 | 50.04461 | 8.56159 | 359 ft | 2 kts | 245° |
| 2026-05-05 15:51 | 50.04451 | 8.56117 | 361 ft | 6 kts | 250° |
| 2026-05-05 15:51 | 50.04425 | 8.56049 | 361 ft | 9 kts | 224° |
| 2026-05-05 15:51 | 50.04353 | 8.56054 | 361 ft | 13 kts | 165° |
| 2026-05-05 15:51 | 50.04270 | 8.56043 | 356 ft | 12 kts | 226° |
| 2026-05-05 15:52 | 50.04236 | 8.55919 | 360 ft | 13 kts | 250° |
| 2026-05-05 15:52 | 50.04200 | 8.55774 | 353 ft | 16 kts | 252° |
| 2026-05-05 15:52 | 50.04163 | 8.55611 | 362 ft | 17 kts | 248° |
| 2026-05-05 15:52 | 50.04115 | 8.55427 | 358 ft | 19 kts | 250° |
| 2026-05-05 15:53 | 50.04085 | 8.55294 | 357 ft | 20 kts | 249° |
| 2026-05-05 15:53 | 50.04035 | 8.55084 | 359 ft | 22 kts | 249° |
| 2026-05-05 15:53 | 50.03959 | 8.54771 | 355 ft | 25 kts | 249° |
| 2026-05-05 15:53 | 50.03919 | 8.54603 | 353 ft | 24 kts | 249° |
| 2026-05-05 15:54 | 50.03862 | 8.54380 | 351 ft | 19 kts | 241° |
| 2026-05-05 15:54 | 50.03792 | 8.54185 | 353 ft | 14 kts | 249° |
| 2026-05-05 15:54 | 50.03768 | 8.54091 | 345 ft | 14 kts | 249° |
| 2026-05-05 15:54 | 50.03734 | 8.53946 | 350 ft | 14 kts | 250° |
| 2026-05-05 15:55 | 50.03698 | 8.53802 | 338 ft | 15 kts | 246° |
| 2026-05-05 15:55 | 50.03660 | 8.53648 | 336 ft | 16 kts | 251° |
| 2026-05-05 15:55 | 50.03619 | 8.53476 | 334 ft | 18 kts | 249° |
| 2026-05-05 15:55 | 50.03573 | 8.53283 | 332 ft | 20 kts | 249° |
| 2026-05-05 15:56 | 50.03524 | 8.53082 | 339 ft | 20 kts | 249° |
| 2026-05-05 15:56 | 50.03477 | 8.52886 | 354 ft | 17 kts | 250° |
| 2026-05-05 15:56 | 50.03442 | 8.52744 | 354 ft | 12 kts | 248° |
| 2026-05-05 15:56 | 50.03407 | 8.52614 | 350 ft | 11 kts | 252° |
| 2026-05-05 15:57 | 50.03349 | 8.52595 | 351 ft | 9 kts | 181° |
| 2026-05-05 15:57 | 50.03341 | 8.52595 | 348 ft | 0 kts | 179° |
| 2026-05-05 15:58 | 50.03339 | 8.52595 | 348 ft | 2 kts | 179° |
| 2026-05-05 15:58 | 50.03216 | 8.52595 | 346 ft | 51 kts | 181° |
| 2026-05-05 15:58 | 50.02636 | 8.52598 | 355 ft | 112 kts | 180° |
| 2026-05-05 15:58 | 50.01690 | 8.52593 | 345 ft | 158 kts | 182° |
| 2026-05-05 15:59 | 50.00558 | 8.52565 | 894 ft | 160 kts | 183° |
| 2026-05-05 15:59 | 49.99435 | 8.52587 | 1593 ft | 164 kts | 182° |
| 2026-05-05 15:59 | 49.98218 | 8.52621 | 1948 ft | 186 kts | 179° |
| 2026-05-05 15:59 | 49.96902 | 8.53210 | 2198 ft | 213 kts | 151° |
| 2026-05-05 16:00 | 49.95815 | 8.54934 | 2686 ft | 234 kts | 122° |
| 2026-05-05 16:00 | 49.95024 | 8.57161 | 3521 ft | 237 kts | 121° |
| 2026-05-05 16:00 | 49.94285 | 8.59460 | 4288 ft | 240 kts | 110° |
| 2026-05-05 16:00 | 49.93993 | 8.62108 | 4812 ft | 262 kts | 95° |